Airfield :







YOU CAN JOIN US ON...

 
LOGIN :

Register | Disclaimer

   EN    FR    IT 

 









Legend :    VFR   Marginal VFR   IFR   Intensive IFR   Very Intensive IFR
Visi :
Ceiling :
>= 8 km
>= 3000ft
5 to 8 km
1000 to 3000 ft
1500m to 5 km
500 to 1000 ft
800 to 1500m
200 to 500 ft
< 800m
< 200 ft
Symbols :   Thunderstorms  Fog  Heavy snow  Heavy precipitations  Wind > 20 kt






- Airport Elevation : 352 ft


KAUG - Augusta State

CURRENT METAR :
  • 280653Z AUTO 22009G15KT 180V250 10SM CLR M03/M10 A2947 RMK AO2 SLP985 T10281100

EXPIRED METARs :
  • 280553Z AUTO 23006KT 10SM CLR M03/M09 A2947 RMK AO2 SLP983 T10281089 10006 21028 51021
  • 280453Z AUTO 23006KT 10SM FEW034 BKN055 M02/M08 A2945 RMK AO2 SLP977 T10221078 400441022

TAF KAUG
Valid from the 28 at 06:00 until the 29 at 06:00 UTC


280532Z 2806/2906 24009G17KT P6SM FEW035 BKN060
FM281400 25012G22KT P6SM BKN050



MET'MAP, your aeronautical weather chart ! - Copyright ORBIFLY December 2007 - Disclaimer

ORBIFLY MET'MAP TEAM :

Programming & Development : Alexandra Zaïnal
Concept & original design : Baudouin d'Aumeries
Assistance for programming : Marc-Olivier Méhu
Technical & hardware support : Manuel Goepfert

Contact : metmap@orbifly.com




SOURCES & CREDITS :

   NOAA